Dearham, United Kingdom
Current Conditions -  °F | °C
As of 12:50 PM on Thursday 27 Nov 2014 (Local Time) from EGNC Reporting Station
Broken Clouds Broken Clouds  
Wind Chill: 44°   Ceiling: 2100
Heat Index: 46°   Visibility: 6mi
Dew Point: 46°   Wind: 5mph
Humidity: 100%   Direction: 60°ENE
Pressure: 29.56"   Gusts: NA
Location:  54.71°N, 3.44°W
Report Text: EGNC 271250Z 06004KT 9999 FEW011 SCT016 BKN021 08/08 Q1001
Loading
Personal Weather Stations






























Interactive Weather Map New forecast layout! Learn more

10-Day Weather Forecast

Advertisements
Track Severe Weather on mobile